Mumbai, India

10:13 AM IST on January 23, 2017 (GMT +0530)
Chhatrapati Shivaji International | | Change Station

Elev 46 ft 19.12 °N, 72.85 °E | Updated 13 minutes ago

Smoke
Smoke
84 °F
Feels Like 83 °F
N
7
Wind Variable Wind from East

Today
High -- | Low -- °F
--% Chance of Precip.
Yesterday
High -- | Low -- °F
Precip. -- in
Pressure 30.04 in
Visibility 1.6 miles
Clouds
Heat Index 83 °F
Dew Point 55 °F
Humidity 37%
Rainfall 0.00 in
Snow Depth Not available.
7:14 AM 6:26 PM
Waning Crescent, 21% visible
METAR VABB 230430Z 08006KT 2500 FU NSC 29/13 Q1017 NOSIG
Pressure 30.04 in
Visibility 1.6 miles
Clouds
Heat Index 83 °F
Dew Point 55 °F
Humidity 37%
Rainfall 0.00 in
Snow Depth Not available.
7:14 AM 6:26 PM
Waning Crescent, 21% visible
METAR VABB 230430Z 08006KT 2500 FU NSC 29/13 Q1017 NOSIG

Get Your Daily Forecast Email!

Thanks for signing up!

Be on the lookout for a verification email in your inbox.

You'll start receiving the daily forecast at 8 AM.

×

10-Day Weather Forecast

No radar image for this location.
×

Almanac

Astronomy

Jan. 23, 2017 Rise Set
Actual Time
Civil Twilight
Nautical Twilight
Astronomical Twilight
Moon
Length of Visible Light
Length of Day
Tomorrow will be .
, % of the Moon is Illuminated

Today's Extremes

Country Highs Country Lows

Community

WunderPhotos

Upload Photos

1,962,540 photos uploaded!

WunderBlog® & News

Nearby

Air Quality

  Air Quality AQ Index Pollutant
Not available.

Snow Depth

Station Depth Elevation

Earthquake Activity

City Distance Mag. Time & Date
Minimum magnitude displayed is 2.5.

Coastal Water Temperatures

Place Temperature

Stations

Nearby Weather Stations

Station Location Temp. Windchill Dew Point Humidity Wind Precip. Elev Updated Type